sensor_id;sensor_type;location;lat;lon;timestamp;P1;durP1;ratioP1;P2;durP2;ratioP2
54823;SDS011;40724;53.196;5.980;2024-03-08T00:01:40;21.25;;;13.75;;
54823;SDS011;40724;53.196;5.980;2024-03-08T00:04:06;27.70;;;13.25;;
54823;SDS011;40724;53.196;5.980;2024-03-08T00:06:33;17.95;;;12.57;;
54823;SDS011;40724;53.196;5.980;2024-03-08T00:08:59;20.83;;;12.77;;
54823;SDS011;40724;53.196;5.980;2024-03-08T00:11:25;23.80;;;13.77;;
54823;SDS011;40724;53.196;5.980;2024-03-08T00:13:52;20.33;;;13.35;;
54823;SDS011;40724;53.196;5.980;2024-03-08T00:16:22;23.38;;;13.85;;
54823;SDS011;40724;53.196;5.980;2024-03-08T00:18:49;20.40;;;13.02;;
54823;SDS011;40724;53.196;5.980;2024-03-08T00:21:15;19.05;;;11.73;;
54823;SDS011;40724;53.196;5.980;2024-03-08T00:23:41;17.25;;;12.35;;
54823;SDS011;40724;53.196;5.980;2024-03-08T00:26:07;19.35;;;12.82;;
54823;SDS011;40724;53.196;5.980;2024-03-08T00:28:33;24.58;;;14.85;;
54823;SDS011;40724;53.196;5.980;2024-03-08T00:31:00;17.13;;;11.48;;
54823;SDS011;40724;53.196;5.980;2024-03-08T00:33:26;21.75;;;12.88;;
54823;SDS011;40724;53.196;5.980;2024-03-08T00:35:55;19.02;;;12.25;;
54823;SDS011;40724;53.196;5.980;2024-03-08T00:38:21;18.70;;;12.57;;
54823;SDS011;40724;53.196;5.980;2024-03-08T00:40:47;21.35;;;13.10;;
54823;SDS011;40724;53.196;5.980;2024-03-08T00:43:13;19.00;;;12.40;;
54823;SDS011;40724;53.196;5.980;2024-03-08T00:45:40;22.42;;;12.43;;
54823;SDS011;40724;53.196;5.980;2024-03-08T00:48:08;19.50;;;12.18;;
54823;SDS011;40724;53.196;5.980;2024-03-08T00:50:35;16.88;;;11.63;;
54823;SDS011;40724;53.196;5.980;2024-03-08T00:53:01;23.20;;;13.55;;
54823;SDS011;40724;53.196;5.980;2024-03-08T00:55:27;21.02;;;12.30;;
54823;SDS011;40724;53.196;5.980;2024-03-08T00:57:54;20.00;;;13.05;;
54823;SDS011;40724;53.196;5.980;2024-03-08T01:00:21;21.08;;;13.80;;
54823;SDS011;40724;53.196;5.980;2024-03-08T01:02:47;19.98;;;14.70;;
54823;SDS011;40724;53.196;5.980;2024-03-08T01:05:13;21.63;;;12.20;;
54823;SDS011;40724;53.196;5.980;2024-03-08T01:07:39;18.67;;;12.15;;
54823;SDS011;40724;53.196;5.980;2024-03-08T01:10:05;22.10;;;14.20;;
54823;SDS011;40724;53.196;5.980;2024-03-08T01:12:35;22.13;;;13.68;;
54823;SDS011;40724;53.196;5.980;2024-03-08T01:15:01;20.65;;;13.27;;
54823;SDS011;40724;53.196;5.980;2024-03-08T01:17:27;22.50;;;13.45;;
54823;SDS011;40724;53.196;5.980;2024-03-08T01:19:53;21.33;;;13.18;;
54823;SDS011;40724;53.196;5.980;2024-03-08T01:22:20;20.20;;;11.88;;
54823;SDS011;40724;53.196;5.980;2024-03-08T01:24:47;21.90;;;12.68;;
54823;SDS011;40724;53.196;5.980;2024-03-08T01:27:14;19.55;;;13.57;;
54823;SDS011;40724;53.196;5.980;2024-03-08T01:29:40;22.02;;;15.05;;
54823;SDS011;40724;53.196;5.980;2024-03-08T01:32:06;17.33;;;12.68;;
54823;SDS011;40724;53.196;5.980;2024-03-08T01:34:33;25.15;;;12.73;;
54823;SDS011;40724;53.196;5.980;2024-03-08T01:36:59;20.60;;;13.75;;
54823;SDS011;40724;53.196;5.980;2024-03-08T01:39:26;18.23;;;13.70;;
54823;SDS011;40724;53.196;5.980;2024-03-08T01:41:52;21.63;;;14.02;;
54823;SDS011;40724;53.196;5.980;2024-03-08T01:44:19;20.77;;;13.80;;
54823;SDS011;40724;53.196;5.980;2024-03-08T01:46:45;22.50;;;15.52;;
54823;SDS011;40724;53.196;5.980;2024-03-08T01:49:12;17.58;;;12.20;;
54823;SDS011;40724;53.196;5.980;2024-03-08T01:51:39;28.88;;;14.18;;
54823;SDS011;40724;53.196;5.980;2024-03-08T01:54:06;18.08;;;12.77;;
54823;SDS011;40724;53.196;5.980;2024-03-08T01:56:35;28.45;;;15.25;;
54823;SDS011;40724;53.196;5.980;2024-03-08T01:59:01;22.77;;;14.45;;
54823;SDS011;40724;53.196;5.980;2024-03-08T02:01:28;21.73;;;14.15;;
54823;SDS011;40724;53.196;5.980;2024-03-08T02:03:54;22.92;;;14.95;;
54823;SDS011;40724;53.196;5.980;2024-03-08T02:06:20;26.05;;;14.35;;
54823;SDS011;40724;53.196;5.980;2024-03-08T02:08:46;26.27;;;14.65;;
54823;SDS011;40724;53.196;5.980;2024-03-08T02:11:13;20.45;;;13.13;;
54823;SDS011;40724;53.196;5.980;2024-03-08T02:13:39;22.55;;;15.05;;
54823;SDS011;40724;53.196;5.980;2024-03-08T02:16:05;21.17;;;14.35;;
54823;SDS011;40724;53.196;5.980;2024-03-08T02:18:33;21.95;;;15.25;;
54823;SDS011;40724;53.196;5.980;2024-03-08T02:21:05;23.52;;;14.82;;
54823;SDS011;40724;53.196;5.980;2024-03-08T02:23:31;27.10;;;15.68;;
54823;SDS011;40724;53.196;5.980;2024-03-08T02:25:58;23.95;;;15.35;;
54823;SDS011;40724;53.196;5.980;2024-03-08T02:28:24;24.88;;;15.88;;
54823;SDS011;40724;53.196;5.980;2024-03-08T02:30:51;24.77;;;14.80;;
54823;SDS011;40724;53.196;5.980;2024-03-08T02:33:21;30.60;;;15.48;;
54823;SDS011;40724;53.196;5.980;2024-03-08T02:35:48;27.67;;;14.13;;
54823;SDS011;40724;53.196;5.980;2024-03-08T02:38:14;25.20;;;16.95;;
54823;SDS011;40724;53.196;5.980;2024-03-08T02:40:44;22.90;;;15.82;;
54823;SDS011;40724;53.196;5.980;2024-03-08T02:43:11;23.95;;;16.42;;
54823;SDS011;40724;53.196;5.980;2024-03-08T02:45:37;25.48;;;15.50;;
54823;SDS011;40724;53.196;5.980;2024-03-08T02:48:04;25.83;;;16.88;;
54823;SDS011;40724;53.196;5.980;2024-03-08T02:50:33;27.50;;;16.42;;
54823;SDS011;40724;53.196;5.980;2024-03-08T02:53:00;25.30;;;16.05;;
54823;SDS011;40724;53.196;5.980;2024-03-08T02:55:26;24.83;;;14.80;;
54823;SDS011;40724;53.196;5.980;2024-03-08T02:57:52;26.85;;;15.82;;
54823;SDS011;40724;53.196;5.980;2024-03-08T03:00:22;23.80;;;15.75;;
54823;SDS011;40724;53.196;5.980;2024-03-08T03:02:49;29.23;;;16.60;;
54823;SDS011;40724;53.196;5.980;2024-03-08T03:05:22;34.95;;;17.25;;
54823;SDS011;40724;53.196;5.980;2024-03-08T03:07:48;26.88;;;17.30;;
54823;SDS011;40724;53.196;5.980;2024-03-08T03:10:16;24.90;;;16.38;;
54823;SDS011;40724;53.196;5.980;2024-03-08T03:12:43;27.83;;;15.85;;
54823;SDS011;40724;53.196;5.980;2024-03-08T03:15:10;27.25;;;17.27;;
54823;SDS011;40724;53.196;5.980;2024-03-08T03:17:37;30.95;;;16.85;;
54823;SDS011;40724;53.196;5.980;2024-03-08T03:20:06;27.35;;;15.88;;
54823;SDS011;40724;53.196;5.980;2024-03-08T03:22:38;29.08;;;18.15;;
54823;SDS011;40724;53.196;5.980;2024-03-08T03:25:06;28.90;;;16.30;;
54823;SDS011;40724;53.196;5.980;2024-03-08T03:27:32;28.38;;;16.05;;
54823;SDS011;40724;53.196;5.980;2024-03-08T03:29:59;24.00;;;16.65;;
54823;SDS011;40724;53.196;5.980;2024-03-08T03:32:44;26.60;;;16.52;;
54823;SDS011;40724;53.196;5.980;2024-03-08T03:35:12;28.70;;;17.85;;
54823;SDS011;40724;53.196;5.980;2024-03-08T03:37:39;28.70;;;16.73;;
54823;SDS011;40724;53.196;5.980;2024-03-08T03:40:08;28.02;;;16.70;;
54823;SDS011;40724;53.196;5.980;2024-03-08T03:42:34;29.40;;;17.25;;
54823;SDS011;40724;53.196;5.980;2024-03-08T03:45:04;24.98;;;18.52;;
54823;SDS011;40724;53.196;5.980;2024-03-08T03:47:30;31.50;;;18.33;;
54823;SDS011;40724;53.196;5.980;2024-03-08T03:49:56;29.52;;;17.35;;
54823;SDS011;40724;53.196;5.980;2024-03-08T03:52:27;27.42;;;19.17;;
54823;SDS011;40724;53.196;5.980;2024-03-08T03:54:53;30.33;;;18.92;;
54823;SDS011;40724;53.196;5.980;2024-03-08T03:57:19;31.70;;;17.08;;
54823;SDS011;40724;53.196;5.980;2024-03-08T03:59:48;25.20;;;17.38;;
54823;SDS011;40724;53.196;5.980;2024-03-08T04:02:16;29.77;;;18.27;;
54823;SDS011;40724;53.196;5.980;2024-03-08T04:04:42;29.48;;;17.85;;
54823;SDS011;40724;53.196;5.980;2024-03-08T04:07:10;33.75;;;19.13;;
54823;SDS011;40724;53.196;5.980;2024-03-08T04:09:36;26.25;;;17.30;;
54823;SDS011;40724;53.196;5.980;2024-03-08T04:12:03;30.95;;;18.13;;
54823;SDS011;40724;53.196;5.980;2024-03-08T04:14:29;31.15;;;18.33;;
54823;SDS011;40724;53.196;5.980;2024-03-08T04:16:55;25.42;;;16.35;;
54823;SDS011;40724;53.196;5.980;2024-03-08T04:19:21;26.10;;;17.25;;
54823;SDS011;40724;53.196;5.980;2024-03-08T04:21:49;27.20;;;16.65;;
54823;SDS011;40724;53.196;5.980;2024-03-08T04:24:15;30.15;;;17.05;;
54823;SDS011;40724;53.196;5.980;2024-03-08T04:26:42;29.77;;;18.38;;
54823;SDS011;40724;53.196;5.980;2024-03-08T04:29:08;26.10;;;17.35;;
54823;SDS011;40724;53.196;5.980;2024-03-08T04:31:34;28.42;;;17.83;;
54823;SDS011;40724;53.196;5.980;2024-03-08T04:34:01;32.72;;;18.33;;
54823;SDS011;40724;53.196;5.980;2024-03-08T04:36:27;26.27;;;17.30;;
54823;SDS011;40724;53.196;5.980;2024-03-08T04:38:53;28.90;;;16.52;;
54823;SDS011;40724;53.196;5.980;2024-03-08T04:41:19;29.88;;;17.58;;
54823;SDS011;40724;53.196;5.980;2024-03-08T04:43:46;26.13;;;16.92;;
54823;SDS011;40724;53.196;5.980;2024-03-08T04:46:12;26.70;;;16.80;;
54823;SDS011;40724;53.196;5.980;2024-03-08T04:48:39;29.60;;;18.33;;
54823;SDS011;40724;53.196;5.980;2024-03-08T04:51:07;25.95;;;17.80;;
54823;SDS011;40724;53.196;5.980;2024-03-08T04:53:34;28.85;;;17.55;;
54823;SDS011;40724;53.196;5.980;2024-03-08T04:56:00;27.45;;;16.13;;
54823;SDS011;40724;53.196;5.980;2024-03-08T04:58:31;27.88;;;17.10;;
54823;SDS011;40724;53.196;5.980;2024-03-08T05:01:00;23.80;;;16.25;;
54823;SDS011;40724;53.196;5.980;2024-03-08T05:03:26;27.45;;;15.65;;
54823;SDS011;40724;53.196;5.980;2024-03-08T05:05:52;32.17;;;18.33;;
54823;SDS011;40724;53.196;5.980;2024-03-08T05:08:18;20.80;;;15.50;;
54823;SDS011;40724;53.196;5.980;2024-03-08T05:10:45;27.70;;;16.88;;
54823;SDS011;40724;53.196;5.980;2024-03-08T05:13:11;30.58;;;16.83;;
54823;SDS011;40724;53.196;5.980;2024-03-08T05:15:38;23.75;;;15.18;;
54823;SDS011;40724;53.196;5.980;2024-03-08T05:18:04;32.65;;;18.52;;
54823;SDS011;40724;53.196;5.980;2024-03-08T05:20:31;26.63;;;15.98;;
54823;SDS011;40724;53.196;5.980;2024-03-08T05:22:57;24.38;;;15.18;;
54823;SDS011;40724;53.196;5.980;2024-03-08T05:25:26;30.63;;;18.08;;
54823;SDS011;40724;53.196;5.980;2024-03-08T05:27:52;27.08;;;16.50;;
54823;SDS011;40724;53.196;5.980;2024-03-08T05:30:18;30.10;;;16.92;;
54823;SDS011;40724;53.196;5.980;2024-03-08T05:32:47;27.48;;;17.08;;
54823;SDS011;40724;53.196;5.980;2024-03-08T05:35:13;26.25;;;16.73;;
54823;SDS011;40724;53.196;5.980;2024-03-08T05:37:41;26.08;;;15.98;;
54823;SDS011;40724;53.196;5.980;2024-03-08T05:40:08;26.05;;;15.77;;
54823;SDS011;40724;53.196;5.980;2024-03-08T05:42:35;23.50;;;16.67;;
54823;SDS011;40724;53.196;5.980;2024-03-08T05:45:02;27.55;;;16.88;;
54823;SDS011;40724;53.196;5.980;2024-03-08T05:47:28;24.58;;;16.70;;
54823;SDS011;40724;53.196;5.980;2024-03-08T05:49:54;27.80;;;16.38;;
54823;SDS011;40724;53.196;5.980;2024-03-08T05:52:20;23.08;;;15.75;;
54823;SDS011;40724;53.196;5.980;2024-03-08T05:54:47;25.55;;;16.40;;
54823;SDS011;40724;53.196;5.980;2024-03-08T05:57:13;29.48;;;16.90;;
54823;SDS011;40724;53.196;5.980;2024-03-08T05:59:39;24.13;;;15.50;;
54823;SDS011;40724;53.196;5.980;2024-03-08T06:02:05;26.65;;;14.98;;
54823;SDS011;40724;53.196;5.980;2024-03-08T06:04:31;30.52;;;15.95;;
54823;SDS011;40724;53.196;5.980;2024-03-08T06:06:58;31.58;;;18.20;;
54823;SDS011;40724;53.196;5.980;2024-03-08T06:09:24;25.58;;;16.90;;
54823;SDS011;40724;53.196;5.980;2024-03-08T06:11:51;26.90;;;16.77;;
54823;SDS011;40724;53.196;5.980;2024-03-08T06:14:19;28.65;;;15.65;;
54823;SDS011;40724;53.196;5.980;2024-03-08T06:16:45;28.73;;;17.23;;
54823;SDS011;40724;53.196;5.980;2024-03-08T06:19:12;30.08;;;18.23;;
54823;SDS011;40724;53.196;5.980;2024-03-08T06:21:38;23.58;;;15.63;;
54823;SDS011;40724;53.196;5.980;2024-03-08T06:24:04;23.20;;;14.38;;
54823;SDS011;40724;53.196;5.980;2024-03-08T06:26:30;24.77;;;15.98;;
54823;SDS011;40724;53.196;5.980;2024-03-08T06:28:57;28.23;;;15.48;;
54823;SDS011;40724;53.196;5.980;2024-03-08T06:31:23;28.10;;;15.40;;
54823;SDS011;40724;53.196;5.980;2024-03-08T06:33:49;25.83;;;15.50;;
54823;SDS011;40724;53.196;5.980;2024-03-08T06:36:16;28.65;;;17.10;;
54823;SDS011;40724;53.196;5.980;2024-03-08T06:38:47;28.08;;;16.17;;
54823;SDS011;40724;53.196;5.980;2024-03-08T06:41:13;25.02;;;16.27;;
54823;SDS011;40724;53.196;5.980;2024-03-08T06:43:45;29.33;;;17.52;;
54823;SDS011;40724;53.196;5.980;2024-03-08T06:46:12;23.67;;;14.85;;
54823;SDS011;40724;53.196;5.980;2024-03-08T06:48:38;22.42;;;15.90;;
54823;SDS011;40724;53.196;5.980;2024-03-08T06:51:04;25.65;;;15.63;;
54823;SDS011;40724;53.196;5.980;2024-03-08T06:53:31;25.70;;;15.63;;
54823;SDS011;40724;53.196;5.980;2024-03-08T06:55:57;26.05;;;16.63;;
54823;SDS011;40724;53.196;5.980;2024-03-08T06:58:24;25.10;;;16.23;;
54823;SDS011;40724;53.196;5.980;2024-03-08T07:00:50;28.38;;;15.40;;
54823;SDS011;40724;53.196;5.980;2024-03-08T07:03:23;23.95;;;15.80;;
54823;SDS011;40724;53.196;5.980;2024-03-08T07:05:50;25.15;;;15.88;;
54823;SDS011;40724;53.196;5.980;2024-03-08T07:08:16;25.52;;;15.48;;
54823;SDS011;40724;53.196;5.980;2024-03-08T07:10:43;22.45;;;15.95;;
54823;SDS011;40724;53.196;5.980;2024-03-08T07:13:10;24.40;;;16.30;;
54823;SDS011;40724;53.196;5.980;2024-03-08T07:15:36;25.45;;;17.85;;
54823;SDS011;40724;53.196;5.980;2024-03-08T07:18:02;26.88;;;16.13;;
54823;SDS011;40724;53.196;5.980;2024-03-08T07:20:29;27.98;;;15.65;;
54823;SDS011;40724;53.196;5.980;2024-03-08T07:22:55;25.33;;;16.25;;
54823;SDS011;40724;53.196;5.980;2024-03-08T07:25:21;23.40;;;15.07;;
54823;SDS011;40724;53.196;5.980;2024-03-08T07:27:49;26.65;;;16.75;;
54823;SDS011;40724;53.196;5.980;2024-03-08T07:30:16;24.13;;;15.27;;
54823;SDS011;40724;53.196;5.980;2024-03-08T07:33:01;24.45;;;14.90;;
54823;SDS011;40724;53.196;5.980;2024-03-08T07:35:28;28.77;;;16.60;;
54823;SDS011;40724;53.196;5.980;2024-03-08T07:37:54;25.42;;;16.60;;
54823;SDS011;40724;53.196;5.980;2024-03-08T07:40:21;29.45;;;16.02;;
54823;SDS011;40724;53.196;5.980;2024-03-08T07:42:48;23.25;;;15.02;;
54823;SDS011;40724;53.196;5.980;2024-03-08T07:45:15;22.83;;;14.98;;
54823;SDS011;40724;53.196;5.980;2024-03-08T07:47:42;27.10;;;15.77;;
54823;SDS011;40724;53.196;5.980;2024-03-08T07:50:08;25.80;;;15.73;;
54823;SDS011;40724;53.196;5.980;2024-03-08T07:52:34;21.23;;;14.18;;
54823;SDS011;40724;53.196;5.980;2024-03-08T07:55:01;25.38;;;14.82;;
54823;SDS011;40724;53.196;5.980;2024-03-08T07:57:29;25.77;;;14.68;;
54823;SDS011;40724;53.196;5.980;2024-03-08T07:59:55;24.35;;;15.93;;
54823;SDS011;40724;53.196;5.980;2024-03-08T08:02:22;22.88;;;15.07;;
54823;SDS011;40724;53.196;5.980;2024-03-08T08:04:48;21.58;;;15.02;;
54823;SDS011;40724;53.196;5.980;2024-03-08T08:07:14;26.15;;;16.08;;
54823;SDS011;40724;53.196;5.980;2024-03-08T08:09:40;20.58;;;13.52;;
54823;SDS011;40724;53.196;5.980;2024-03-08T08:12:08;24.10;;;14.90;;
54823;SDS011;40724;53.196;5.980;2024-03-08T08:14:40;27.65;;;16.30;;
54823;SDS011;40724;53.196;5.980;2024-03-08T08:17:06;18.77;;;13.73;;
54823;SDS011;40724;53.196;5.980;2024-03-08T08:19:34;21.40;;;14.20;;
54823;SDS011;40724;53.196;5.980;2024-03-08T08:22:04;23.98;;;15.80;;
54823;SDS011;40724;53.196;5.980;2024-03-08T08:24:30;24.27;;;15.55;;
54823;SDS011;40724;53.196;5.980;2024-03-08T08:26:57;21.85;;;15.52;;
54823;SDS011;40724;53.196;5.980;2024-03-08T08:29:23;23.10;;;14.70;;
54823;SDS011;40724;53.196;5.980;2024-03-08T08:31:49;26.17;;;15.65;;
54823;SDS011;40724;53.196;5.980;2024-03-08T08:34:16;28.52;;;15.07;;
54823;SDS011;40724;53.196;5.980;2024-03-08T08:36:44;22.45;;;14.77;;
54823;SDS011;40724;53.196;5.980;2024-03-08T08:39:10;21.42;;;14.38;;
54823;SDS011;40724;53.196;5.980;2024-03-08T08:41:39;23.77;;;14.32;;
54823;SDS011;40724;53.196;5.980;2024-03-08T08:44:07;22.98;;;15.30;;
54823;SDS011;40724;53.196;5.980;2024-03-08T08:46:37;20.65;;;13.98;;
54823;SDS011;40724;53.196;5.980;2024-03-08T08:49:04;23.38;;;15.40;;
54823;SDS011;40724;53.196;5.980;2024-03-08T08:51:31;23.48;;;15.80;;
54823;SDS011;40724;53.196;5.980;2024-03-08T08:53:58;22.58;;;15.02;;
54823;SDS011;40724;53.196;5.980;2024-03-08T08:56:25;24.40;;;16.52;;
54823;SDS011;40724;53.196;5.980;2024-03-08T08:58:51;21.63;;;16.02;;
54823;SDS011;40724;53.196;5.980;2024-03-08T09:01:20;21.80;;;14.43;;
54823;SDS011;40724;53.196;5.980;2024-03-08T09:03:47;25.45;;;16.42;;
54823;SDS011;40724;53.196;5.980;2024-03-08T09:06:15;21.85;;;14.93;;
54823;SDS011;40724;53.196;5.980;2024-03-08T09:08:42;25.63;;;16.70;;
54823;SDS011;40724;53.196;5.980;2024-03-08T09:11:11;25.63;;;14.23;;
54823;SDS011;40724;53.196;5.980;2024-03-08T09:13:37;23.88;;;15.40;;
54823;SDS011;40724;53.196;5.980;2024-03-08T09:16:04;27.45;;;16.40;;
54823;SDS011;40724;53.196;5.980;2024-03-08T09:18:31;24.83;;;16.40;;
54823;SDS011;40724;53.196;5.980;2024-03-08T09:20:58;23.48;;;15.05;;
54823;SDS011;40724;53.196;5.980;2024-03-08T09:23:28;24.58;;;16.38;;
54823;SDS011;40724;53.196;5.980;2024-03-08T09:25:58;26.05;;;15.95;;
54823;SDS011;40724;53.196;5.980;2024-03-08T09:28:24;23.75;;;15.15;;
54823;SDS011;40724;53.196;5.980;2024-03-08T09:30:52;24.48;;;15.05;;
54823;SDS011;40724;53.196;5.980;2024-03-08T09:33:20;22.95;;;15.63;;
54823;SDS011;40724;53.196;5.980;2024-03-08T09:35:47;23.95;;;15.85;;
54823;SDS011;40724;53.196;5.980;2024-03-08T09:38:13;22.08;;;15.55;;
54823;SDS011;40724;53.196;5.980;2024-03-08T09:40:43;23.63;;;15.70;;
54823;SDS011;40724;53.196;5.980;2024-03-08T09:43:09;22.38;;;14.55;;
54823;SDS011;40724;53.196;5.980;2024-03-08T09:45:39;21.50;;;14.20;;
54823;SDS011;40724;53.196;5.980;2024-03-08T09:48:10;25.77;;;16.75;;
54823;SDS011;40724;53.196;5.980;2024-03-08T09:50:40;28.35;;;17.95;;
54823;SDS011;40724;53.196;5.980;2024-03-08T09:53:06;26.52;;;16.70;;
54823;SDS011;40724;53.196;5.980;2024-03-08T09:55:42;23.33;;;16.63;;
54823;SDS011;40724;53.196;5.980;2024-03-08T09:58:12;26.08;;;16.63;;
54823;SDS011;40724;53.196;5.980;2024-03-08T10:00:52;24.30;;;16.27;;
54823;SDS011;40724;53.196;5.980;2024-03-08T10:03:19;24.48;;;16.55;;
54823;SDS011;40724;53.196;5.980;2024-03-08T10:05:45;28.17;;;16.35;;
54823;SDS011;40724;53.196;5.980;2024-03-08T10:08:11;22.90;;;15.15;;
54823;SDS011;40724;53.196;5.980;2024-03-08T10:10:38;23.77;;;16.63;;
54823;SDS011;40724;53.196;5.980;2024-03-08T10:13:07;21.45;;;15.80;;
54823;SDS011;40724;53.196;5.980;2024-03-08T10:15:34;23.90;;;16.15;;
54823;SDS011;40724;53.196;5.980;2024-03-08T10:18:01;22.08;;;14.10;;
54823;SDS011;40724;53.196;5.980;2024-03-08T10:20:33;21.02;;;15.75;;
54823;SDS011;40724;53.196;5.980;2024-03-08T10:22:59;22.15;;;15.55;;
54823;SDS011;40724;53.196;5.980;2024-03-08T10:25:28;21.02;;;14.18;;
54823;SDS011;40724;53.196;5.980;2024-03-08T10:27:55;17.77;;;13.93;;
54823;SDS011;40724;53.196;5.980;2024-03-08T10:30:22;20.08;;;13.30;;
54823;SDS011;40724;53.196;5.980;2024-03-08T10:32:48;20.13;;;13.73;;
54823;SDS011;40724;53.196;5.980;2024-03-08T10:35:14;19.17;;;14.25;;
54823;SDS011;40724;53.196;5.980;2024-03-08T10:37:45;21.58;;;14.77;;
54823;SDS011;40724;53.196;5.980;2024-03-08T10:40:18;21.55;;;13.38;;
54823;SDS011;40724;53.196;5.980;2024-03-08T10:47:50;19.70;;;13.93;;
54823;SDS011;40724;53.196;5.980;2024-03-08T10:50:23;20.17;;;14.00;;
54823;SDS011;40724;53.196;5.980;2024-03-08T10:52:50;20.30;;;13.70;;
54823;SDS011;40724;53.196;5.980;2024-03-08T10:55:17;21.00;;;14.48;;
54823;SDS011;40724;53.196;5.980;2024-03-08T10:57:45;20.13;;;13.18;;
54823;SDS011;40724;53.196;5.980;2024-03-08T11:00:16;19.05;;;13.75;;
54823;SDS011;40724;53.196;5.980;2024-03-08T11:02:44;19.08;;;13.45;;
54823;SDS011;40724;53.196;5.980;2024-03-08T11:05:10;20.25;;;12.85;;
54823;SDS011;40724;53.196;5.980;2024-03-08T11:07:43;18.20;;;13.88;;
54823;SDS011;40724;53.196;5.980;2024-03-08T11:10:19;15.07;;;12.63;;
54823;SDS011;40724;53.196;5.980;2024-03-08T11:12:46;18.95;;;13.60;;
54823;SDS011;40724;53.196;5.980;2024-03-08T11:15:13;18.50;;;12.93;;
54823;SDS011;40724;53.196;5.980;2024-03-08T11:20:12;16.80;;;12.40;;
54823;SDS011;40724;53.196;5.980;2024-03-08T11:23:03;15.10;;;12.25;;
54823;SDS011;40724;53.196;5.980;2024-03-08T11:25:32;18.90;;;12.98;;
54823;SDS011;40724;53.196;5.980;2024-03-08T11:28:09;23.17;;;12.23;;
54823;SDS011;40724;53.196;5.980;2024-03-08T11:31:24;18.42;;;12.73;;
54823;SDS011;40724;53.196;5.980;2024-03-08T11:33:40;19.38;;;13.00;;
54823;SDS011;40724;53.196;5.980;2024-03-08T11:36:12;19.15;;;13.45;;
54823;SDS011;40724;53.196;5.980;2024-03-08T11:38:42;16.65;;;12.05;;
54823;SDS011;40724;53.196;5.980;2024-03-08T11:41:09;17.15;;;12.35;;
54823;SDS011;40724;53.196;5.980;2024-03-08T11:43:42;18.98;;;12.80;;
54823;SDS011;40724;53.196;5.980;2024-03-08T11:46:13;16.27;;;11.50;;
54823;SDS011;40724;53.196;5.980;2024-03-08T11:48:40;16.77;;;12.00;;
54823;SDS011;40724;53.196;5.980;2024-03-08T11:51:12;16.35;;;11.45;;
54823;SDS011;40724;53.196;5.980;2024-03-08T11:53:39;15.10;;;10.93;;
54823;SDS011;40724;53.196;5.980;2024-03-08T11:56:12;21.02;;;12.57;;
54823;SDS011;40724;53.196;5.980;2024-03-08T11:58:39;13.50;;;10.38;;
54823;SDS011;40724;53.196;5.980;2024-03-08T12:01:06;18.92;;;12.52;;
54823;SDS011;40724;53.196;5.980;2024-03-08T12:03:34;16.48;;;11.35;;
54823;SDS011;40724;53.196;5.980;2024-03-08T12:06:00;17.70;;;11.05;;
54823;SDS011;40724;53.196;5.980;2024-03-08T12:08:27;16.42;;;12.80;;
54823;SDS011;40724;53.196;5.980;2024-03-08T12:10:53;16.05;;;10.50;;
54823;SDS011;40724;53.196;5.980;2024-03-08T12:13:27;15.15;;;9.93;;
54823;SDS011;40724;53.196;5.980;2024-03-08T12:15:56;13.82;;;10.98;;
54823;SDS011;40724;53.196;5.980;2024-03-08T12:18:29;12.50;;;10.55;;
54823;SDS011;40724;53.196;5.980;2024-03-08T12:21:06;12.85;;;9.85;;
54823;SDS011;40724;53.196;5.980;2024-03-08T12:23:34;15.65;;;11.00;;
54823;SDS011;40724;53.196;5.980;2024-03-08T12:26:13;14.18;;;10.75;;
54823;SDS011;40724;53.196;5.980;2024-03-08T12:28:41;17.17;;;10.60;;
54823;SDS011;40724;53.196;5.980;2024-03-08T12:31:11;15.15;;;9.52;;
54823;SDS011;40724;53.196;5.980;2024-03-08T12:33:53;12.68;;;9.73;;
54823;SDS011;40724;53.196;5.980;2024-03-08T12:36:21;13.88;;;10.50;;
54823;SDS011;40724;53.196;5.980;2024-03-08T12:38:47;12.40;;;10.80;;
54823;SDS011;40724;53.196;5.980;2024-03-08T12:41:16;20.45;;;11.80;;
54823;SDS011;40724;53.196;5.980;2024-03-08T12:43:46;13.45;;;10.18;;
54823;SDS011;40724;53.196;5.980;2024-03-08T12:46:19;12.38;;;10.50;;
54823;SDS011;40724;53.196;5.980;2024-03-08T12:48:46;15.27;;;10.77;;
54823;SDS011;40724;53.196;5.980;2024-03-08T12:51:17;13.18;;;9.95;;
54823;SDS011;40724;53.196;5.980;2024-03-08T12:53:44;14.25;;;10.15;;
54823;SDS011;40724;53.196;5.980;2024-03-08T12:56:11;14.25;;;10.38;;
54823;SDS011;40724;53.196;5.980;2024-03-08T12:58:37;13.23;;;9.70;;
54823;SDS011;40724;53.196;5.980;2024-03-08T13:01:04;16.23;;;10.30;;
54823;SDS011;40724;53.196;5.980;2024-03-08T13:03:32;11.70;;;9.60;;
54823;SDS011;40724;53.196;5.980;2024-03-08T13:06:01;13.57;;;9.60;;
54823;SDS011;40724;53.196;5.980;2024-03-08T13:08:28;16.15;;;10.15;;
54823;SDS011;40724;53.196;5.980;2024-03-08T13:10:56;11.65;;;8.68;;
54823;SDS011;40724;53.196;5.980;2024-03-08T13:13:22;12.50;;;8.70;;
54823;SDS011;40724;53.196;5.980;2024-03-08T13:15:49;11.93;;;8.77;;
54823;SDS011;40724;53.196;5.980;2024-03-08T13:18:16;14.05;;;9.70;;
54823;SDS011;40724;53.196;5.980;2024-03-08T13:20:42;10.82;;;9.02;;
54823;SDS011;40724;53.196;5.980;2024-03-08T13:23:14;11.82;;;10.23;;
54823;SDS011;40724;53.196;5.980;2024-03-08T13:25:40;13.48;;;9.88;;
54823;SDS011;40724;53.196;5.980;2024-03-08T13:28:06;12.77;;;10.07;;
54823;SDS011;40724;53.196;5.980;2024-03-08T13:30:32;12.77;;;9.88;;
54823;SDS011;40724;53.196;5.980;2024-03-08T13:32:58;12.38;;;9.50;;
54823;SDS011;40724;53.196;5.980;2024-03-08T13:35:23;10.40;;;8.85;;
54823;SDS011;40724;53.196;5.980;2024-03-08T13:37:52;10.20;;;8.27;;
54823;SDS011;40724;53.196;5.980;2024-03-08T13:40:18;11.77;;;8.32;;
54823;SDS011;40724;53.196;5.980;2024-03-08T13:42:48;11.07;;;9.43;;
54823;SDS011;40724;53.196;5.980;2024-03-08T13:45:15;22.60;;;10.20;;
54823;SDS011;40724;53.196;5.980;2024-03-08T13:47:47;11.75;;;8.73;;
54823;SDS011;40724;53.196;5.980;2024-03-08T13:50:16;10.57;;;8.82;;
54823;SDS011;40724;53.196;5.980;2024-03-08T13:52:49;10.63;;;8.48;;
54823;SDS011;40724;53.196;5.980;2024-03-08T13:57:45;9.90;;;8.05;;
54823;SDS011;40724;53.196;5.980;2024-03-08T14:00:12;11.18;;;9.05;;
54823;SDS011;40724;53.196;5.980;2024-03-08T14:02:38;12.48;;;9.57;;
54823;SDS011;40724;53.196;5.980;2024-03-08T14:05:06;10.40;;;8.93;;
54823;SDS011;40724;53.196;5.980;2024-03-08T14:07:37;11.45;;;9.23;;
54823;SDS011;40724;53.196;5.980;2024-03-08T14:10:04;12.57;;;8.95;;
54823;SDS011;40724;53.196;5.980;2024-03-08T14:12:32;11.77;;;9.00;;
54823;SDS011;40724;53.196;5.980;2024-03-08T14:14:58;12.90;;;9.80;;
54823;SDS011;40724;53.196;5.980;2024-03-08T14:17:33;11.65;;;9.30;;
54823;SDS011;40724;53.196;5.980;2024-03-08T14:19:59;12.20;;;9.52;;
54823;SDS011;40724;53.196;5.980;2024-03-08T14:22:25;12.00;;;9.40;;
54823;SDS011;40724;53.196;5.980;2024-03-08T14:24:51;10.75;;;9.00;;
54823;SDS011;40724;53.196;5.980;2024-03-08T14:27:20;11.75;;;9.70;;
54823;SDS011;40724;53.196;5.980;2024-03-08T14:29:48;11.70;;;9.70;;
54823;SDS011;40724;53.196;5.980;2024-03-08T14:32:14;12.77;;;9.23;;
54823;SDS011;40724;53.196;5.980;2024-03-08T14:34:40;10.48;;;8.93;;
54823;SDS011;40724;53.196;5.980;2024-03-08T14:37:08;11.02;;;8.55;;